Time;durP1;ratioP1;P1;durP2;ratioP2;P2;SDS_P1;SDS_P2;PMS_P1;PMS_P2;Temp;Humidity;BMP_temperature;BMP_pressure;BME280_temperature;BME280_humidity;BME280_pressure;Samples;Min_cycle;Max_cycle;Signal;HPM_P1;HPM_P2
2022/07/08 00:01:55;;;;;;;;;;;13.20;68.10;;;;;;4175351;28;19917;-87
2022/07/08 00:04:16;;;;;;;;;;;13.10;68.00;;;;;;4183474;28;19923;-89
2022/07/08 00:06:37;;;;;;;;;;;13.10;68.00;;;;;;4182263;28;20369;-89
2022/07/08 00:08:57;;;;;;;;;;;13.10;68.00;;;;;;4161773;28;19909;-88
2022/07/08 00:11:18;;;;;;;;;;;13.10;68.10;;;;;;4176146;28;20576;-88
2022/07/08 00:13:39;;;;;;;;;;;13.10;68.00;;;;;;4179521;28;19909;-88
2022/07/08 00:16:00;;;;;;;;;;;13.10;68.20;;;;;;4182037;28;20368;-88
2022/07/08 00:18:21;;;;;;;;;;;13.00;68.20;;;;;;4180298;28;19912;-87
2022/07/08 00:20:42;;;;;;;;;;;13.00;68.10;;;;;;4169579;28;20012;-88
2022/07/08 00:23:03;;;;;;;;;;;13.10;68.30;;;;;;4181803;28;19923;-89
2022/07/08 00:25:24;;;;;;;;;;;13.00;68.20;;;;;;4179863;28;19924;-86
2022/07/08 00:27:44;;;;;;;;;;;13.00;68.30;;;;;;4170070;28;20292;-87
2022/07/08 00:30:06;;;;;;;;;;;13.00;68.30;;;;;;4184846;28;19908;-88
2022/07/08 00:32:26;;;;;;;;;;;13.00;68.20;;;;;;4173452;28;20503;-87
2022/07/08 00:34:50;;;;;;;;;;;13.00;68.50;;;;;;4177484;28;19916;-87
2022/07/08 00:37:11;;;;;;;;;;;13.00;68.40;;;;;;4168256;28;19913;-89
2022/07/08 00:39:32;;;;;;;;;;;13.00;68.50;;;;;;4185587;28;20459;-89
2022/07/08 00:41:56;;;;;;;;;;;13.00;68.70;;;;;;4173057;28;19928;-88
2022/07/08 00:44:17;;;;;;;;;;;13.00;68.90;;;;;;4160535;28;19916;-88
2022/07/08 00:46:38;;;;;;;;;;;13.00;68.70;;;;;;4176955;28;19920;-87
2022/07/08 00:48:59;;;;;;;;;;;12.90;68.90;;;;;;4168482;28;19952;-88
2022/07/08 00:51:20;;;;;;;;;;;13.00;68.80;;;;;;4170178;28;19944;-89
2022/07/08 00:53:42;;;;;;;;;;;12.90;68.70;;;;;;4180186;28;19924;-89
2022/07/08 00:56:04;;;;;;;;;;;12.90;68.80;;;;;;4180001;28;20485;-89
2022/07/08 00:58:25;;;;;;;;;;;12.90;68.80;;;;;;4181893;28;19912;-89
2022/07/08 01:00:46;;;;;;;;;;;12.90;68.70;;;;;;4185150;28;19912;-87
2022/07/08 01:03:07;;;;;;;;;;;12.90;68.90;;;;;;4177813;28;19912;-86
2022/07/08 01:05:28;;;;;;;;;;;12.90;69.00;;;;;;4181571;28;20007;-87
2022/07/08 01:07:49;;;;;;;;;;;12.80;68.80;;;;;;4181357;28;20284;-89
2022/07/08 01:10:10;;;;;;;;;;;12.80;68.80;;;;;;4184734;28;19999;-90
2022/07/08 01:12:31;;;;;;;;;;;12.80;68.90;;;;;;4180857;28;19915;-88
2022/07/08 01:14:52;;;;;;;;;;;12.80;68.90;;;;;;4168912;28;19996;-89
2022/07/08 01:17:13;;;;;;;;;;;12.80;69.00;;;;;;4181719;28;19926;-89
2022/07/08 01:19:34;;;;;;;;;;;12.80;69.00;;;;;;4166979;28;19979;-91
2022/07/08 01:21:55;;;;;;;;;;;12.80;68.70;;;;;;4163441;28;19943;-90
2022/07/08 01:24:17;;;;;;;;;;;12.80;68.80;;;;;;4175099;28;19924;-89
2022/07/08 01:26:38;;;;;;;;;;;12.80;68.90;;;;;;4176981;28;20058;-88
2022/07/08 01:28:59;;;;;;;;;;;12.80;68.90;;;;;;4160889;28;19913;-91
2022/07/08 01:31:20;;;;;;;;;;;12.70;68.70;;;;;;4183243;28;19995;-91
2022/07/08 01:33:41;;;;;;;;;;;12.70;69.10;;;;;;4177789;28;19959;-90
2022/07/08 01:36:02;;;;;;;;;;;12.70;69.60;;;;;;4168251;28;19917;-89
2022/07/08 01:38:23;;;;;;;;;;;12.70;69.10;;;;;;4168783;28;20369;-90
2022/07/08 01:40:44;;;;;;;;;;;12.70;69.00;;;;;;4182416;28;19912;-89
2022/07/08 01:43:07;;;;;;;;;;;12.70;69.20;;;;;;4178869;28;19915;-88
2022/07/08 01:45:28;;;;;;;;;;;12.60;69.30;;;;;;4177312;28;20505;-89
2022/07/08 01:47:49;;;;;;;;;;;12.60;69.20;;;;;;4165871;28;19952;-91
2022/07/08 01:50:10;;;;;;;;;;;12.60;69.20;;;;;;4166795;28;19912;-91
2022/07/08 01:52:31;;;;;;;;;;;12.60;69.50;;;;;;4160786;28;20450;-89
2022/07/08 01:54:52;;;;;;;;;;;12.60;69.50;;;;;;4167769;28;19951;-88
2022/07/08 01:57:16;;;;;;;;;;;12.60;69.40;;;;;;4164327;28;19999;-91
2022/07/08 01:59:37;;;;;;;;;;;12.60;69.50;;;;;;4173663;28;20007;-92
2022/07/08 02:01:57;;;;;;;;;;;12.60;69.50;;;;;;4163121;28;19927;-89
2022/07/08 02:04:18;;;;;;;;;;;12.60;69.40;;;;;;4181455;28;20328;-90
2022/07/08 02:06:39;;;;;;;;;;;12.60;69.40;;;;;;4167369;28;20011;-90
2022/07/08 02:09:00;;;;;;;;;;;12.60;69.40;;;;;;4175904;28;20493;-88
2022/07/08 02:14:01;;;;;;;;;;;12.60;69.30;;;;;;4176519;28;19916;-90
2022/07/08 02:16:22;;;;;;;;;;;12.60;69.30;;;;;;4181150;28;19915;-88
2022/07/08 02:18:43;;;;;;;;;;;12.60;69.30;;;;;;4178654;28;19948;-90
2022/07/08 02:21:04;;;;;;;;;;;12.60;69.10;;;;;;4165233;28;20607;-91
2022/07/08 02:23:35;;;;;;;;;;;;;;;;;;;;;
2022/07/08 02:25:57;;;;;;;;;;;12.60;69.00;;;;;;4176758;28;20061;-89
2022/07/08 02:28:18;;;;;;;;;;;12.60;68.90;;;;;;4163579;28;20046;-90
2022/07/08 02:30:39;;;;;;;;;;;12.60;68.90;;;;;;4163462;28;19909;-90
2022/07/08 02:33:02;;;;;;;;;;;12.60;68.80;;;;;;4179162;28;19966;-92
2022/07/08 02:35:23;;;;;;;;;;;12.50;68.70;;;;;;4166241;28;20626;-90
2022/07/08 02:37:43;;;;;;;;;;;12.50;68.70;;;;;;4163076;28;19913;-93
2022/07/08 02:40:05;;;;;;;;;;;12.50;68.80;;;;;;4163374;28;19917;-90
2022/07/08 02:42:26;;;;;;;;;;;12.50;68.70;;;;;;4166427;28;19912;-88
2022/07/08 02:44:46;;;;;;;;;;;12.50;68.70;;;;;;4161423;28;19924;-90
2022/07/08 02:47:08;;;;;;;;;;;12.50;68.80;;;;;;4162073;28;19913;-90
2022/07/08 02:49:29;;;;;;;;;;;12.50;68.70;;;;;;4165161;28;19913;-89
2022/07/08 02:51:50;;;;;;;;;;;12.50;68.70;;;;;;4177635;28;20001;-90
2022/07/08 02:54:11;;;;;;;;;;;12.50;68.70;;;;;;4179699;28;19913;-91
2022/07/08 02:56:32;;;;;;;;;;;12.40;68.60;;;;;;4166803;28;20289;-91
2022/07/08 02:58:53;;;;;;;;;;;12.40;68.60;;;;;;4165648;28;20419;-92
2022/07/08 03:01:14;;;;;;;;;;;12.40;68.60;;;;;;4175544;28;20390;-89
2022/07/08 03:03:43;;;;;;;;;;;12.40;68.70;;;;;;4163267;28;19912;-92
2022/07/08 03:06:05;;;;;;;;;;;12.40;68.70;;;;;;4180346;28;20876;-92
2022/07/08 03:08:31;;;;;;;;;;;12.40;68.70;;;;;;4165733;28;19995;-92
2022/07/08 03:10:57;;;;;;;;;;;12.40;68.60;;;;;;4166175;28;20377;-93
2022/07/08 03:13:21;;;;;;;;;;;12.50;68.80;;;;;;4169083;28;19913;-92
2022/07/08 03:15:45;;;;;;;;;;;12.40;68.70;;;;;;4182149;28;19917;-91
2022/07/08 03:18:09;;;;;;;;;;;12.40;68.90;;;;;;4166387;28;19956;-93
2022/07/08 03:20:30;;;;;;;;;;;12.40;69.50;;;;;;4183512;28;19909;-91
2022/07/08 03:22:51;;;;;;;;;;;12.40;69.30;;;;;;4164271;28;19954;-92
2022/07/08 03:25:29;;;;;;;;;;;12.40;69.40;;;;;;4164762;28;20023;-93
2022/07/08 03:27:50;;;;;;;;;;;12.30;69.80;;;;;;4178315;28;20320;-91
2022/07/08 03:30:20;;;;;;;;;;;12.40;69.50;;;;;;4177199;28;20369;-93
2022/07/08 03:32:41;;;;;;;;;;;12.40;69.80;;;;;;4166152;28;19909;-91
2022/07/08 03:35:04;;;;;;;;;;;12.40;69.60;;;;;;4168538;28;19916;-91
2022/07/08 03:37:38;;;;;;;;;;;12.40;69.80;;;;;;4162347;28;19909;-93
2022/07/08 03:41:19;;;;;;;;;;;12.40;69.60;;;;;;4179156;28;19917;-91
2022/07/08 03:42:43;;;;;;;;;;;12.40;70.20;;;;;;4174825;28;19974;-90
2022/07/08 03:45:06;;;;;;;;;;;12.40;70.10;;;;;;4186935;28;19952;-91
2022/07/08 03:47:27;;;;;;;;;;;12.30;70.30;;;;;;4180714;28;19921;-92
2022/07/08 03:49:48;;;;;;;;;;;12.40;70.70;;;;;;4185261;28;19952;-93
2022/07/08 03:52:11;;;;;;;;;;;12.40;70.40;;;;;;4187467;28;19935;-91
2022/07/08 03:55:16;;;;;;;;;;;12.50;70.50;;;;;;4188734;28;19944;-91
2022/07/08 03:57:36;;;;;;;;;;;12.50;70.50;;;;;;4197470;28;19938;-89
2022/07/08 03:59:57;;;;;;;;;;;12.50;70.90;;;;;;4185192;28;19917;-91
2022/07/08 04:02:18;;;;;;;;;;;12.60;70.70;;;;;;4188745;28;19905;-89
2022/07/08 04:04:39;;;;;;;;;;;12.60;70.80;;;;;;4199191;28;19972;-91
2022/07/08 04:07:00;;;;;;;;;;;12.60;70.50;;;;;;4197789;28;20302;-90
2022/07/08 04:09:21;;;;;;;;;;;12.70;70.60;;;;;;4184224;28;20327;-92
2022/07/08 04:11:41;;;;;;;;;;;12.70;70.50;;;;;;4166643;28;19909;-90
2022/07/08 04:14:02;;;;;;;;;;;12.70;70.50;;;;;;4181861;28;20439;-92
2022/07/08 04:16:23;;;;;;;;;;;12.80;70.60;;;;;;4168644;28;20378;-89
2022/07/08 04:18:44;;;;;;;;;;;12.80;71.00;;;;;;4182022;28;19919;-91
2022/07/08 04:21:06;;;;;;;;;;;12.80;71.30;;;;;;4172560;28;19912;-90
2022/07/08 04:23:26;;;;;;;;;;;12.90;71.40;;;;;;4178795;28;19916;-91
2022/07/08 04:25:47;;;;;;;;;;;13.00;71.40;;;;;;4166118;28;19917;-90
2022/07/08 04:28:08;;;;;;;;;;;13.10;71.60;;;;;;4165384;28;19909;-91
2022/07/08 04:30:29;;;;;;;;;;;13.10;71.60;;;;;;4177907;28;20131;-91
2022/07/08 04:32:50;;;;;;;;;;;13.20;71.60;;;;;;4166104;28;19967;-90
2022/07/08 04:35:11;;;;;;;;;;;13.30;71.60;;;;;;4165747;28;20490;-88
2022/07/08 04:37:32;;;;;;;;;;;13.40;71.60;;;;;;4183572;28;20356;-90
2022/07/08 04:39:53;;;;;;;;;;;13.50;71.80;;;;;;4180874;28;19912;-92
2022/07/08 04:42:14;;;;;;;;;;;13.50;71.20;;;;;;4179444;28;20007;-91
2022/07/08 04:44:35;;;;;;;;;;;13.60;71.00;;;;;;4179086;28;20042;-90
2022/07/08 04:46:56;;;;;;;;;;;13.60;70.70;;;;;;4177068;28;19927;-91
2022/07/08 04:49:17;;;;;;;;;;;13.70;70.50;;;;;;4166944;28;19948;-91
2022/07/08 04:51:38;;;;;;;;;;;13.70;70.40;;;;;;4168529;28;19957;-88
2022/07/08 04:53:59;;;;;;;;;;;13.70;70.30;;;;;;4174741;28;20281;-90
2022/07/08 04:56:19;;;;;;;;;;;13.80;70.20;;;;;;4160248;28;19929;-91
2022/07/08 04:58:40;;;;;;;;;;;13.80;70.10;;;;;;4165830;28;19958;-90
2022/07/08 05:01:02;;;;;;;;;;;13.90;70.00;;;;;;4160451;28;20011;-90
2022/07/08 05:03:23;;;;;;;;;;;13.90;70.00;;;;;;4165427;28;19913;-87
2022/07/08 05:05:44;;;;;;;;;;;13.90;69.90;;;;;;4170708;28;19923;-89
2022/07/08 05:08:05;;;;;;;;;;;13.90;69.90;;;;;;4172251;28;19912;-88
2022/07/08 05:10:26;;;;;;;;;;;13.90;69.70;;;;;;4161713;28;20032;-88
2022/07/08 05:12:48;;;;;;;;;;;13.90;69.70;;;;;;4173012;28;20352;-90
2022/07/08 05:15:09;;;;;;;;;;;14.00;69.90;;;;;;4165439;28;19908;-89
2022/07/08 05:17:31;;;;;;;;;;;14.00;69.80;;;;;;4181746;28;19918;-89
2022/07/08 05:19:52;;;;;;;;;;;14.00;69.80;;;;;;4173420;28;20709;-90
2022/07/08 05:22:13;;;;;;;;;;;14.00;69.90;;;;;;4167843;28;19912;-89
2022/07/08 05:24:34;;;;;;;;;;;14.00;69.90;;;;;;4163807;28;19917;-88
2022/07/08 05:26:55;;;;;;;;;;;14.10;70.30;;;;;;4158188;28;20286;-89
2022/07/08 05:29:17;;;;;;;;;;;14.10;70.20;;;;;;4179412;28;19940;-89
2022/07/08 05:31:37;;;;;;;;;;;14.10;70.20;;;;;;4164416;28;20036;-89
2022/07/08 05:33:58;;;;;;;;;;;14.10;70.10;;;;;;4165515;28;19908;-90
2022/07/08 05:36:19;;;;;;;;;;;14.20;70.30;;;;;;4184594;28;20407;-91
2022/07/08 05:38:40;;;;;;;;;;;14.20;70.10;;;;;;4179951;28;20844;-90
2022/07/08 05:41:01;;;;;;;;;;;14.20;70.60;;;;;;4179848;28;19908;-90
2022/07/08 05:43:22;;;;;;;;;;;14.20;70.50;;;;;;4168536;28;19962;-90
2022/07/08 05:45:43;;;;;;;;;;;14.20;70.70;;;;;;4178712;28;19970;-90
2022/07/08 05:48:04;;;;;;;;;;;14.20;70.50;;;;;;4183098;28;19916;-89
2022/07/08 05:50:25;;;;;;;;;;;14.20;70.80;;;;;;4190549;28;19952;-92
2022/07/08 05:52:46;;;;;;;;;;;14.20;70.60;;;;;;4166414;28;19962;-91
2022/07/08 05:55:32;;;;;;;;;;;14.30;70.60;;;;;;4179124;28;19969;-92
2022/07/08 05:58:03;;;;;;;;;;;;;;;;;;;;;
2022/07/08 06:00:24;;;;;;;;;;;14.30;71.00;;;;;;4188079;28;19944;-93
2022/07/08 06:02:45;;;;;;;;;;;14.30;71.20;;;;;;4188293;28;19912;-90
2022/07/08 06:05:10;;;;;;;;;;;14.40;71.10;;;;;;4191879;28;19948;-93
2022/07/08 06:07:32;;;;;;;;;;;14.40;71.30;;;;;;4186402;28;19912;-91
2022/07/08 06:09:55;;;;;;;;;;;14.40;71.20;;;;;;4175561;28;19916;-92
2022/07/08 06:12:24;;;;;;;;;;;14.40;71.40;;;;;;4172608;28;20387;-91
2022/07/08 06:14:45;;;;;;;;;;;14.50;71.30;;;;;;4186938;28;19912;-92
2022/07/08 06:17:14;;;;;;;;;;;14.50;71.40;;;;;;4172058;28;19980;-93
2022/07/08 06:19:47;;;;;;;;;;;14.50;71.70;;;;;;4174953;28;19919;-91
2022/07/08 06:22:10;;;;;;;;;;;14.60;71.60;;;;;;4174218;28;19946;-94
2022/07/08 06:24:31;;;;;;;;;;;14.70;72.10;;;;;;4182547;28;19924;-91
2022/07/08 06:26:52;;;;;;;;;;;14.60;71.70;;;;;;4184135;28;19977;-92
2022/07/08 06:29:18;;;;;;;;;;;14.70;71.70;;;;;;4169185;28;19913;-93
2022/07/08 06:31:42;;;;;;;;;;;14.70;72.00;;;;;;4173887;28;19908;-94
2022/07/08 06:34:12;;;;;;;;;;;14.70;71.90;;;;;;4175859;28;19920;-93
2022/07/08 06:36:33;;;;;;;;;;;14.70;72.00;;;;;;4178331;28;20634;-91
2022/07/08 06:39:08;;;;;;;;;;;14.70;72.30;;;;;;4180734;28;19923;-94
2022/07/08 06:45:03;;;;;;;;;;;14.80;72.60;;;;;;4195072;28;19916;-94
2022/07/08 06:47:47;;;;;;;;;;;14.80;72.70;;;;;;4184991;28;19971;-94
2022/07/08 06:50:26;;;;;;;;;;;14.80;72.80;;;;;;4197377;28;19927;-95
2022/07/08 06:53:12;;;;;;;;;;;14.80;72.80;;;;;;4187259;28;19912;-94
2022/07/08 06:55:37;;;;;;;;;;;14.80;72.70;;;;;;4172104;28;19915;-95
2022/07/08 06:58:38;;;;;;;;;;;14.80;72.80;;;;;;4156056;28;20586;-94
2022/07/08 07:06:00;;;;;;;;;;;;;;;;;;;;;
2022/07/08 08:05:03;;;;;;;;;;;;;;;;;;;;;
2022/07/08 08:07:25;;;;;;;;;;;15.30;76.50;;;;;;4192581;28;20051;-85
2022/07/08 08:10:17;;;;;;;;;;;15.40;76.50;;;;;;4190014;28;19919;-86
2022/07/08 08:12:41;;;;;;;;;;;15.40;77.00;;;;;;4190086;28;19905;-84
2022/07/08 08:24:33;;;;;;;;;;;15.70;76.40;;;;;;4098237;28;19942;-85
2022/07/08 08:27:19;;;;;;;;;;;15.70;76.50;;;;;;4083465;29;19923;-82
2022/07/08 08:29:55;;;;;;;;;;;15.70;76.50;;;;;;4079063;29;19936;-84
2022/07/08 08:32:29;;;;;;;;;;;;;;;;;;;;;
2022/07/08 08:34:50;;;;;;;;;;;15.80;76.90;;;;;;4170856;23;20027;-87
2022/07/08 08:37:11;;;;;;;;;;;15.90;77.10;;;;;;4174759;28;19944;-87
2022/07/08 08:39:32;;;;;;;;;;;15.90;76.80;;;;;;4171972;28;20767;-85
2022/07/08 08:41:53;;;;;;;;;;;16.00;77.10;;;;;;4169524;28;20392;-85
2022/07/08 08:44:14;;;;;;;;;;;16.10;76.80;;;;;;4167337;28;20387;-85
2022/07/08 08:46:35;;;;;;;;;;;16.20;76.70;;;;;;4172981;28;19920;-84
2022/07/08 08:48:56;;;;;;;;;;;16.20;76.40;;;;;;4174509;28;20011;-86
2022/07/08 08:51:20;;;;;;;;;;;16.30;75.90;;;;;;4171116;28;19912;-85
2022/07/08 08:53:45;;;;;;;;;;;16.40;75.70;;;;;;4179770;28;19912;-85
2022/07/08 08:56:11;;;;;;;;;;;16.50;75.50;;;;;;4161430;28;19916;-85
2022/07/08 08:58:32;;;;;;;;;;;16.50;75.10;;;;;;4173507;28;19959;-86
2022/07/08 09:00:53;;;;;;;;;;;16.60;74.60;;;;;;4151840;28;19909;-85
2022/07/08 09:03:14;;;;;;;;;;;16.60;73.40;;;;;;4168327;28;20345;-86
2022/07/08 09:05:35;;;;;;;;;;;16.70;73.50;;;;;;4159948;28;20084;-84
2022/07/08 09:07:56;;;;;;;;;;;16.70;73.10;;;;;;4161625;28;19921;-86
2022/07/08 09:10:17;;;;;;;;;;;16.80;72.90;;;;;;4170310;28;19944;-84
2022/07/08 09:12:38;;;;;;;;;;;16.80;72.50;;;;;;4148509;28;19910;-85
2022/07/08 09:15:00;;;;;;;;;;;16.80;72.50;;;;;;4165770;28;19916;-86
2022/07/08 09:17:21;;;;;;;;;;;16.90;71.90;;;;;;4168839;28;19912;-85
2022/07/08 09:19:49;;;;;;;;;;;16.90;72.10;;;;;;4162033;28;19916;-84
2022/07/08 09:22:10;;;;;;;;;;;17.00;71.80;;;;;;4151024;28;19916;-85
2022/07/08 09:24:31;;;;;;;;;;;17.00;71.40;;;;;;4168135;28;19924;-84
2022/07/08 09:26:55;;;;;;;;;;;17.10;70.90;;;;;;4158557;28;19916;-86
2022/07/08 09:29:16;;;;;;;;;;;17.20;70.60;;;;;;4168055;28;20415;-84
2022/07/08 09:31:38;;;;;;;;;;;17.20;69.70;;;;;;4152961;28;20296;-85
2022/07/08 09:34:05;;;;;;;;;;;17.20;69.60;;;;;;4152819;28;20415;-87
2022/07/08 09:36:28;;;;;;;;;;;17.30;69.20;;;;;;4169669;28;19999;-86
2022/07/08 09:38:49;;;;;;;;;;;17.30;69.00;;;;;;4162714;28;20288;-86
2022/07/08 09:41:15;;;;;;;;;;;17.30;69.00;;;;;;4167957;28;19915;-85
2022/07/08 09:43:43;;;;;;;;;;;17.40;68.80;;;;;;4155992;28;20007;-86
2022/07/08 09:46:05;;;;;;;;;;;17.40;69.10;;;;;;4151417;28;19913;-85
2022/07/08 09:48:26;;;;;;;;;;;17.40;68.90;;;;;;4166681;28;19909;-87
2022/07/08 09:50:47;;;;;;;;;;;17.50;68.00;;;;;;4167012;28;19912;-86
2022/07/08 09:53:12;;;;;;;;;;;17.60;68.40;;;;;;4166319;28;20479;-87
2022/07/08 09:55:37;;;;;;;;;;;17.70;68.40;;;;;;4167995;28;19909;-86
2022/07/08 09:57:59;;;;;;;;;;;17.70;68.50;;;;;;4154719;28;19909;-88
2022/07/08 10:00:22;;;;;;;;;;;17.80;68.00;;;;;;4165472;28;19920;-87
2022/07/08 10:02:44;;;;;;;;;;;17.90;67.90;;;;;;4166755;28;19921;-87
2022/07/08 10:05:05;;;;;;;;;;;18.00;66.90;;;;;;4166041;28;19912;-86
2022/07/08 10:07:26;;;;;;;;;;;18.00;65.80;;;;;;4154648;28;20405;-86
2022/07/08 10:09:46;;;;;;;;;;;18.10;64.60;;;;;;4165571;28;20778;-87
2022/07/08 10:12:10;;;;;;;;;;;18.10;64.60;;;;;;4173403;28;19912;-86
2022/07/08 10:14:31;;;;;;;;;;;18.10;64.00;;;;;;4168786;28;19920;-86
2022/07/08 10:16:52;;;;;;;;;;;18.20;64.20;;;;;;4160712;28;19920;-85
2022/07/08 10:19:16;;;;;;;;;;;18.20;63.70;;;;;;4169458;28;19917;-86
2022/07/08 10:21:38;;;;;;;;;;;18.30;63.90;;;;;;4155931;28;19913;-87
2022/07/08 10:23:59;;;;;;;;;;;18.30;62.60;;;;;;4169028;28;19919;-87
2022/07/08 10:26:27;;;;;;;;;;;18.40;61.90;;;;;;4161078;28;19913;-86
2022/07/08 10:28:59;;;;;;;;;;;18.40;61.70;;;;;;4168679;28;19909;-87
2022/07/08 10:31:20;;;;;;;;;;;18.50;61.00;;;;;;4167171;28;19908;-86
2022/07/08 10:33:45;;;;;;;;;;;18.60;61.80;;;;;;4155848;28;19909;-88
2022/07/08 10:36:07;;;;;;;;;;;18.70;60.60;;;;;;4172008;28;19913;-87
2022/07/08 10:38:28;;;;;;;;;;;18.70;59.90;;;;;;4157225;28;19909;-86
2022/07/08 10:40:50;;;;;;;;;;;18.80;59.90;;;;;;4171715;28;19909;-88
2022/07/08 10:43:19;;;;;;;;;;;18.80;59.10;;;;;;4169214;28;19916;-88
2022/07/08 10:45:59;;;;;;;;;;;18.90;58.60;;;;;;4157834;28;19917;-87
2022/07/08 10:48:21;;;;;;;;;;;18.90;58.40;;;;;;4171141;28;20301;-87
2022/07/08 10:50:42;;;;;;;;;;;18.90;57.40;;;;;;4154684;28;20422;-88
2022/07/08 10:53:06;;;;;;;;;;;19.00;57.60;;;;;;4170956;28;19917;-85
2022/07/08 10:55:27;;;;;;;;;;;19.00;57.60;;;;;;4168941;28;20016;-87
2022/07/08 10:57:57;;;;;;;;;;;19.10;56.80;;;;;;4170824;28;19920;-87
2022/07/08 11:00:18;;;;;;;;;;;19.10;57.50;;;;;;4161027;28;19916;-88
2022/07/08 11:02:40;;;;;;;;;;;19.10;56.90;;;;;;4159833;28;20266;-87
2022/07/08 11:05:01;;;;;;;;;;;19.20;56.60;;;;;;4157394;28;19913;-86
2022/07/08 11:09:48;;;;;;;;;;;19.20;56.50;;;;;;4171384;28;20020;-88
2022/07/08 11:12:13;;;;;;;;;;;19.30;55.90;;;;;;4170449;28;20675;-87
2022/07/08 11:14:34;;;;;;;;;;;19.30;56.40;;;;;;4158574;28;19924;-87
2022/07/08 11:16:55;;;;;;;;;;;19.30;56.50;;;;;;4156086;28;19940;-88
2022/07/08 11:19:16;;;;;;;;;;;19.40;56.40;;;;;;4168320;28;19913;-88
2022/07/08 11:21:37;;;;;;;;;;;19.50;56.50;;;;;;4171414;28;19928;-85
2022/07/08 11:23:58;;;;;;;;;;;19.50;56.10;;;;;;4155524;28;19908;-86
2022/07/08 11:26:20;;;;;;;;;;;19.50;56.60;;;;;;4160955;28;19913;-86
2022/07/08 11:28:41;;;;;;;;;;;19.50;56.20;;;;;;4158339;28;19995;-86
2022/07/08 11:31:02;;;;;;;;;;;19.60;55.90;;;;;;4153513;28;20365;-87
2022/07/08 11:33:39;;;;;;;;;;;19.60;55.40;;;;;;4157469;28;19924;-88
2022/07/08 11:36:10;;;;;;;;;;;19.70;55.20;;;;;;4153479;28;19917;-86
2022/07/08 11:38:39;;;;;;;;;;;19.70;55.20;;;;;;4170994;28;19940;-88
2022/07/08 11:41:00;;;;;;;;;;;19.70;54.90;;;;;;4170611;28;19909;-85
2022/07/08 11:43:21;;;;;;;;;;;19.70;54.60;;;;;;4153887;28;20397;-86
2022/07/08 11:45:42;;;;;;;;;;;19.70;54.90;;;;;;4157429;28;19917;-88
2022/07/08 11:48:06;;;;;;;;;;;19.70;54.60;;;;;;4170735;28;19921;-87
2022/07/08 11:50:27;;;;;;;;;;;19.70;54.60;;;;;;4168316;28;19913;-87
2022/07/08 11:52:48;;;;;;;;;;;19.70;54.80;;;;;;4157367;28;19964;-85
2022/07/08 11:55:09;;;;;;;;;;;19.70;53.50;;;;;;4154854;28;19917;-86
2022/07/08 11:57:30;;;;;;;;;;;19.70;53.70;;;;;;4170649;28;19924;-87
2022/07/08 11:59:51;;;;;;;;;;;19.70;53.20;;;;;;4153658;28;19909;-87
2022/07/08 12:02:12;;;;;;;;;;;19.70;53.90;;;;;;4169118;28;19948;-85
2022/07/08 12:04:34;;;;;;;;;;;19.70;53.40;;;;;;4169935;28;19912;-86
2022/07/08 12:06:55;;;;;;;;;;;19.70;53.70;;;;;;4152935;28;20370;-88
2022/07/08 12:09:17;;;;;;;;;;;19.70;53.90;;;;;;4166267;28;19909;-87
2022/07/08 12:11:42;;;;;;;;;;;19.70;54.50;;;;;;4158198;28;19920;-86
2022/07/08 12:14:07;;;;;;;;;;;19.80;54.10;;;;;;4155942;28;20051;-88
2022/07/08 12:16:32;;;;;;;;;;;19.70;54.50;;;;;;4159762;28;20681;-88
2022/07/08 12:18:53;;;;;;;;;;;19.80;54.10;;;;;;4170600;28;19916;-88
2022/07/08 12:21:18;;;;;;;;;;;19.80;53.70;;;;;;4170483;28;20357;-86
2022/07/08 12:23:43;;;;;;;;;;;19.70;53.60;;;;;;4153708;28;19955;-89
2022/07/08 12:26:04;;;;;;;;;;;19.70;53.00;;;;;;4165254;28;19991;-85
2022/07/08 12:28:25;;;;;;;;;;;19.70;52.80;;;;;;4168408;28;19931;-86
2022/07/08 12:30:46;;;;;;;;;;;19.60;53.10;;;;;;4154677;28;19939;-85
2022/07/08 12:33:06;;;;;;;;;;;19.60;53.50;;;;;;4170689;28;19999;-87
2022/07/08 12:35:29;;;;;;;;;;;19.50;53.80;;;;;;4162843;28;19916;-86
2022/07/08 12:38:01;;;;;;;;;;;19.50;53.60;;;;;;4168366;28;19953;-87
2022/07/08 12:40:22;;;;;;;;;;;19.40;54.20;;;;;;4163288;28;19908;-88
2022/07/08 12:42:59;;;;;;;;;;;19.40;53.90;;;;;;4158973;28;20004;-87
2022/07/08 12:45:26;;;;;;;;;;;19.30;53.80;;;;;;4162309;28;19909;-89
2022/07/08 12:47:46;;;;;;;;;;;19.30;54.20;;;;;;4153767;28;19913;-87
2022/07/08 12:50:07;;;;;;;;;;;19.30;54.60;;;;;;4150768;28;19909;-86
2022/07/08 12:52:28;;;;;;;;;;;19.30;54.80;;;;;;4149084;28;20258;-85
2022/07/08 12:54:49;;;;;;;;;;;19.30;55.60;;;;;;4148671;28;19909;-87
2022/07/08 12:57:10;;;;;;;;;;;19.20;55.00;;;;;;4158145;28;19971;-88
2022/07/08 12:59:31;;;;;;;;;;;19.30;55.30;;;;;;4147154;28;20444;-87
2022/07/08 13:01:53;;;;;;;;;;;19.20;55.50;;;;;;4150480;28;20613;-88
2022/07/08 13:04:14;;;;;;;;;;;19.20;55.00;;;;;;4164636;28;19917;-88
2022/07/08 13:06:35;;;;;;;;;;;19.20;54.70;;;;;;4150690;28;19913;-87
2022/07/08 13:08:55;;;;;;;;;;;19.10;54.90;;;;;;4161813;28;19916;-87
2022/07/08 13:11:16;;;;;;;;;;;19.10;55.30;;;;;;4161139;28;20376;-87
2022/07/08 13:13:37;;;;;;;;;;;19.10;55.70;;;;;;4160487;28;19916;-87
2022/07/08 13:15:58;;;;;;;;;;;19.10;55.80;;;;;;4147676;28;19940;-87
2022/07/08 13:18:19;;;;;;;;;;;19.10;55.50;;;;;;4161136;28;20565;-85
2022/07/08 13:20:40;;;;;;;;;;;19.10;55.60;;;;;;4151514;28;19979;-88
2022/07/08 13:23:01;;;;;;;;;;;19.10;55.40;;;;;;4159122;28;19945;-87
2022/07/08 13:25:21;;;;;;;;;;;19.10;55.60;;;;;;4162720;28;19916;-86
2022/07/08 13:27:44;;;;;;;;;;;19.10;55.90;;;;;;4144425;28;19996;-87
2022/07/08 13:30:06;;;;;;;;;;;19.20;56.10;;;;;;4162186;28;19908;-88
2022/07/08 13:32:26;;;;;;;;;;;19.20;56.80;;;;;;4152015;28;19992;-88
2022/07/08 13:34:47;;;;;;;;;;;19.30;56.30;;;;;;4151524;28;20261;-89
2022/07/08 13:37:08;;;;;;;;;;;19.30;55.70;;;;;;4163182;28;19915;-88
2022/07/08 13:39:29;;;;;;;;;;;19.30;54.70;;;;;;4163339;28;20511;-89
2022/07/08 13:41:50;;;;;;;;;;;19.40;55.10;;;;;;4161204;28;19921;-86
2022/07/08 13:44:10;;;;;;;;;;;19.40;55.10;;;;;;4162409;28;19919;-87
2022/07/08 13:46:31;;;;;;;;;;;19.40;54.90;;;;;;4160189;28;19917;-89
2022/07/08 13:48:52;;;;;;;;;;;19.50;54.70;;;;;;4147071;28;19912;-88
2022/07/08 13:51:13;;;;;;;;;;;19.50;54.20;;;;;;4147857;28;19956;-86
2022/07/08 13:53:34;;;;;;;;;;;19.50;54.40;;;;;;4165568;28;20361;-87
2022/07/08 13:55:55;;;;;;;;;;;19.50;53.90;;;;;;4160036;28;19948;-87
2022/07/08 13:58:19;;;;;;;;;;;19.50;53.90;;;;;;4166198;28;19916;-92
2022/07/08 14:00:43;;;;;;;;;;;19.50;54.20;;;;;;4163950;28;19905;-93
2022/07/08 14:03:16;;;;;;;;;;;19.40;54.00;;;;;;4181519;28;19920;-95
2022/07/08 14:05:40;;;;;;;;;;;19.40;54.30;;;;;;4174929;28;20584;-92
2022/07/08 14:08:01;;;;;;;;;;;19.40;54.70;;;;;;4174361;28;19913;-90
2022/07/08 14:10:23;;;;;;;;;;;19.40;54.50;;;;;;4166051;28;19948;-93
2022/07/08 14:12:47;;;;;;;;;;;19.40;54.00;;;;;;4160570;28;19920;-94
2022/07/08 14:15:11;;;;;;;;;;;19.40;53.40;;;;;;4171690;28;19905;-93
2022/07/08 14:17:37;;;;;;;;;;;19.30;52.70;;;;;;4166294;28;20000;-92
2022/07/08 14:19:59;;;;;;;;;;;19.30;53.00;;;;;;4174568;28;19904;-92
2022/07/08 14:22:23;;;;;;;;;;;19.30;53.70;;;;;;4165461;28;19919;-95
2022/07/08 14:24:44;;;;;;;;;;;19.40;53.90;;;;;;4167989;28;19963;-92
2022/07/08 14:27:05;;;;;;;;;;;19.40;52.60;;;;;;4178329;28;20533;-92
2022/07/08 14:29:26;;;;;;;;;;;19.40;52.60;;;;;;4166324;28;20416;-93
2022/07/08 14:31:50;;;;;;;;;;;19.40;52.70;;;;;;4165850;28;20385;-92
2022/07/08 14:34:11;;;;;;;;;;;19.40;53.50;;;;;;4167506;28;19920;-90
2022/07/08 14:36:38;;;;;;;;;;;19.30;53.40;;;;;;4163705;28;19905;-94
2022/07/08 14:39:24;;;;;;;;;;;19.30;52.60;;;;;;4169444;28;19909;-94
2022/07/08 14:42:06;;;;;;;;;;;19.40;53.20;;;;;;4170836;28;19909;-92
2022/07/08 14:44:32;;;;;;;;;;;19.30;52.80;;;;;;4180399;28;19916;-92
2022/07/08 14:47:17;;;;;;;;;;;19.20;52.60;;;;;;4174894;28;20423;-92
2022/07/08 14:49:44;;;;;;;;;;;19.20;52.90;;;;;;4167807;28;19913;-93
2022/07/08 14:52:15;;;;;;;;;;;19.20;53.60;;;;;;4182265;28;20095;-94
2022/07/08 14:54:36;;;;;;;;;;;19.10;54.00;;;;;;4182174;28;19908;-93
2022/07/08 14:57:00;;;;;;;;;;;19.10;54.30;;;;;;4161383;28;19912;-92
2022/07/08 14:59:27;;;;;;;;;;;19.10;54.20;;;;;;4162110;28;19976;-93
2022/07/08 15:01:51;;;;;;;;;;;19.10;54.10;;;;;;4160984;28;20332;-93
2022/07/08 15:04:12;;;;;;;;;;;19.10;54.30;;;;;;4178490;28;19904;-92
2022/07/08 15:06:39;;;;;;;;;;;19.10;54.20;;;;;;4161609;28;19925;-91
2022/07/08 15:09:00;;;;;;;;;;;19.10;53.80;;;;;;4179291;28;19945;-92
2022/07/08 15:11:21;;;;;;;;;;;19.10;54.10;;;;;;4174410;28;19905;-93
2022/07/08 15:13:42;;;;;;;;;;;19.00;54.30;;;;;;4179502;28;20057;-91
2022/07/08 15:16:04;;;;;;;;;;;19.00;54.40;;;;;;4180218;28;19926;-92
2022/07/08 15:18:34;;;;;;;;;;;18.90;54.40;;;;;;4181969;28;19948;-92